sensor_id;sensor_type;location;lat;lon;timestamp;pressure;altitude;pressure_sealevel;temperature;humidity
6829;BME280;17930;48.592;8.868;2022-12-07T00:01:26;96787.38;;;3.86;100.00
6829;BME280;17930;48.592;8.868;2022-12-07T00:03:55;96791.44;;;3.71;100.00
6829;BME280;17930;48.592;8.868;2022-12-07T00:06:26;96802.47;;;3.55;100.00
6829;BME280;17930;48.592;8.868;2022-12-07T00:08:53;96796.19;;;3.51;100.00
6829;BME280;17930;48.592;8.868;2022-12-07T00:11:21;96792.94;;;3.44;100.00
6829;BME280;17930;48.592;8.868;2022-12-07T00:13:51;96794.97;;;3.42;100.00
6829;BME280;17930;48.592;8.868;2022-12-07T00:16:20;96788.59;;;3.45;100.00
6829;BME280;17930;48.592;8.868;2022-12-07T00:18:48;96788.25;;;3.41;100.00
6829;BME280;17930;48.592;8.868;2022-12-07T00:21:16;96796.19;;;3.40;100.00
6829;BME280;17930;48.592;8.868;2022-12-07T00:23:45;96786.22;;;3.43;100.00
6829;BME280;17930;48.592;8.868;2022-12-07T00:26:14;96789.88;;;3.58;100.00
6829;BME280;17930;48.592;8.868;2022-12-07T00:28:44;96788.44;;;3.51;100.00
6829;BME280;17930;48.592;8.868;2022-12-07T00:31:12;96787.31;;;3.47;100.00
6829;BME280;17930;48.592;8.868;2022-12-07T00:33:39;96786.09;;;3.50;100.00
6829;BME280;17930;48.592;8.868;2022-12-07T00:36:09;96785.78;;;3.46;100.00
6829;BME280;17930;48.592;8.868;2022-12-07T00:38:37;96779.50;;;3.42;100.00
6829;BME280;17930;48.592;8.868;2022-12-07T00:41:06;96778.06;;;3.46;100.00
6829;BME280;17930;48.592;8.868;2022-12-07T00:43:33;96777.03;;;3.47;100.00
6829;BME280;17930;48.592;8.868;2022-12-07T00:46:00;96784.53;;;3.49;100.00
6829;BME280;17930;48.592;8.868;2022-12-07T00:48:27;96781.72;;;3.50;100.00
6829;BME280;17930;48.592;8.868;2022-12-07T00:50:54;96773.44;;;3.48;100.00
6829;BME280;17930;48.592;8.868;2022-12-07T00:53:22;96772.66;;;3.48;100.00
6829;BME280;17930;48.592;8.868;2022-12-07T00:55:49;96773.53;;;3.53;100.00
6829;BME280;17930;48.592;8.868;2022-12-07T00:58:16;96773.19;;;3.61;100.00
6829;BME280;17930;48.592;8.868;2022-12-07T01:00:43;96772.19;;;3.62;100.00
6829;BME280;17930;48.592;8.868;2022-12-07T01:03:11;96778.56;;;3.71;100.00
6829;BME280;17930;48.592;8.868;2022-12-07T01:05:38;96775.22;;;3.59;100.00
6829;BME280;17930;48.592;8.868;2022-12-07T01:08:06;96771.41;;;3.50;100.00
6829;BME280;17930;48.592;8.868;2022-12-07T01:10:34;96772.97;;;3.51;100.00
6829;BME280;17930;48.592;8.868;2022-12-07T01:13:01;96776.69;;;3.55;100.00
6829;BME280;17930;48.592;8.868;2022-12-07T01:15:27;96780.50;;;3.53;100.00
6829;BME280;17930;48.592;8.868;2022-12-07T01:17:54;96780.16;;;3.49;100.00
6829;BME280;17930;48.592;8.868;2022-12-07T01:20:21;96782.53;;;3.39;100.00
6829;BME280;17930;48.592;8.868;2022-12-07T01:22:48;96783.53;;;3.38;100.00
6829;BME280;17930;48.592;8.868;2022-12-07T01:25:14;96787.13;;;3.37;100.00
6829;BME280;17930;48.592;8.868;2022-12-07T01:27:43;96784.75;;;3.36;100.00
6829;BME280;17930;48.592;8.868;2022-12-07T01:30:10;96789.59;;;3.32;100.00
6829;BME280;17930;48.592;8.868;2022-12-07T01:32:37;96785.22;;;3.33;100.00
6829;BME280;17930;48.592;8.868;2022-12-07T01:35:05;96788.03;;;3.31;100.00
6829;BME280;17930;48.592;8.868;2022-12-07T01:37:34;96790.81;;;3.30;100.00
6829;BME280;17930;48.592;8.868;2022-12-07T01:40:03;96798.31;;;3.31;100.00
6829;BME280;17930;48.592;8.868;2022-12-07T01:42:30;96794.75;;;3.32;100.00
6829;BME280;17930;48.592;8.868;2022-12-07T01:45:34;96797.56;;;3.31;100.00
6829;BME280;17930;48.592;8.868;2022-12-07T01:48:04;96794.75;;;3.32;100.00
6829;BME280;17930;48.592;8.868;2022-12-07T01:50:31;96798.44;;;3.36;100.00
6829;BME280;17930;48.592;8.868;2022-12-07T01:53:02;96794.31;;;3.35;100.00
6829;BME280;17930;48.592;8.868;2022-12-07T01:55:30;96793.94;;;3.43;100.00
6829;BME280;17930;48.592;8.868;2022-12-07T01:57:57;96790.72;;;3.48;100.00
6829;BME280;17930;48.592;8.868;2022-12-07T02:00:24;96800.66;;;3.55;100.00
6829;BME280;17930;48.592;8.868;2022-12-07T02:02:55;96799.94;;;3.71;100.00
6829;BME280;17930;48.592;8.868;2022-12-07T02:05:24;96799.19;;;3.71;100.00
6829;BME280;17930;48.592;8.868;2022-12-07T02:07:53;96799.88;;;3.55;100.00
6829;BME280;17930;48.592;8.868;2022-12-07T02:10:24;96803.03;;;3.34;100.00
6829;BME280;17930;48.592;8.868;2022-12-07T02:12:55;96803.03;;;3.11;100.00
6829;BME280;17930;48.592;8.868;2022-12-07T02:15:28;96811.97;;;2.98;100.00
6829;BME280;17930;48.592;8.868;2022-12-07T02:18:03;96805.28;;;2.97;100.00
6829;BME280;17930;48.592;8.868;2022-12-07T02:20:33;96803.91;;;2.83;100.00
6829;BME280;17930;48.592;8.868;2022-12-07T02:29:07;96807.31;;;2.54;100.00
6829;BME280;17930;48.592;8.868;2022-12-07T02:31:42;96794.88;;;2.51;100.00
6829;BME280;17930;48.592;8.868;2022-12-07T02:34:13;96795.31;;;2.48;100.00
6829;BME280;17930;48.592;8.868;2022-12-07T02:36:47;96798.16;;;2.58;100.00
6829;BME280;17930;48.592;8.868;2022-12-07T02:39:20;96799.94;;;2.57;100.00
6829;BME280;17930;48.592;8.868;2022-12-07T02:41:54;96803.44;;;2.63;100.00
6829;BME280;17930;48.592;8.868;2022-12-07T02:44:26;96804.28;;;2.57;100.00
6829;BME280;17930;48.592;8.868;2022-12-07T02:46:57;96796.47;;;2.52;100.00
6829;BME280;17930;48.592;8.868;2022-12-07T02:49:25;96800.34;;;2.43;100.00
6829;BME280;17930;48.592;8.868;2022-12-07T02:51:53;96798.63;;;2.37;100.00
6829;BME280;17930;48.592;8.868;2022-12-07T02:54:20;96799.06;;;2.34;100.00
6829;BME280;17930;48.592;8.868;2022-12-07T02:56:50;96800.66;;;2.35;100.00
6829;BME280;17930;48.592;8.868;2022-12-07T02:59:29;96793.59;;;2.31;100.00
6829;BME280;17930;48.592;8.868;2022-12-07T03:02:11;96792.03;;;2.30;100.00
6829;BME280;17930;48.592;8.868;2022-12-07T03:04:52;96793.25;;;2.27;100.00
6829;BME280;17930;48.592;8.868;2022-12-07T03:07:30;96790.41;;;2.58;100.00
6829;BME280;17930;48.592;8.868;2022-12-07T03:10:03;96785.63;;;2.50;100.00
6829;BME280;17930;48.592;8.868;2022-12-07T03:12:39;96785.03;;;2.48;100.00
6829;BME280;17930;48.592;8.868;2022-12-07T03:15:14;96785.03;;;2.48;100.00
6829;BME280;17930;48.592;8.868;2022-12-07T03:17:44;96777.00;;;2.56;100.00
6829;BME280;17930;48.592;8.868;2022-12-07T03:20:14;96777.69;;;2.63;100.00
6829;BME280;17930;48.592;8.868;2022-12-07T03:22:44;96768.00;;;2.47;100.00
6829;BME280;17930;48.592;8.868;2022-12-07T03:25:15;96772.91;;;2.37;100.00
6829;BME280;17930;48.592;8.868;2022-12-07T03:27:45;96766.31;;;2.30;100.00
6829;BME280;17930;48.592;8.868;2022-12-07T03:30:20;96767.09;;;2.30;100.00
6829;BME280;17930;48.592;8.868;2022-12-07T03:32:50;96768.22;;;2.34;100.00
6829;BME280;17930;48.592;8.868;2022-12-07T03:35:23;96774.81;;;2.30;100.00
6829;BME280;17930;48.592;8.868;2022-12-07T03:37:55;96770.53;;;2.24;100.00
6829;BME280;17930;48.592;8.868;2022-12-07T03:40:26;96769.09;;;2.28;100.00
6829;BME280;17930;48.592;8.868;2022-12-07T03:42:55;96777.03;;;2.27;100.00
6829;BME280;17930;48.592;8.868;2022-12-07T03:45:31;96772.59;;;2.34;100.00
6829;BME280;17930;48.592;8.868;2022-12-07T03:48:04;96784.28;;;2.18;100.00
6829;BME280;17930;48.592;8.868;2022-12-07T03:50:40;96777.97;;;2.14;100.00
6829;BME280;17930;48.592;8.868;2022-12-07T03:53:13;96776.84;;;2.10;100.00
6829;BME280;17930;48.592;8.868;2022-12-07T03:55:42;96771.69;;;2.10;100.00
6829;BME280;17930;48.592;8.868;2022-12-07T03:58:12;96771.38;;;2.07;100.00
6829;BME280;17930;48.592;8.868;2022-12-07T04:00:42;96775.59;;;2.02;100.00
6829;BME280;17930;48.592;8.868;2022-12-07T04:03:09;96771.88;;;1.98;100.00
6829;BME280;17930;48.592;8.868;2022-12-07T04:05:37;96777.72;;;2.04;100.00
6829;BME280;17930;48.592;8.868;2022-12-07T04:08:04;96777.69;;;2.22;100.00
6829;BME280;17930;48.592;8.868;2022-12-07T04:10:31;96773.97;;;2.18;100.00
6829;BME280;17930;48.592;8.868;2022-12-07T04:12:58;96775.38;;;2.32;100.00
6829;BME280;17930;48.592;8.868;2022-12-07T04:15:25;96772.16;;;2.48;100.00
6829;BME280;17930;48.592;8.868;2022-12-07T04:17:53;96768.25;;;2.57;100.00
6829;BME280;17930;48.592;8.868;2022-12-07T04:20:20;96771.66;;;2.28;100.00
6829;BME280;17930;48.592;8.868;2022-12-07T04:22:47;96766.22;;;2.36;100.00
6829;BME280;17930;48.592;8.868;2022-12-07T04:25:13;96768.41;;;2.21;100.00
6829;BME280;17930;48.592;8.868;2022-12-07T04:27:40;96755.00;;;2.31;100.00
6829;BME280;17930;48.592;8.868;2022-12-07T04:30:08;96755.53;;;2.21;100.00
6829;BME280;17930;48.592;8.868;2022-12-07T04:32:35;96756.28;;;2.10;100.00
6829;BME280;17930;48.592;8.868;2022-12-07T04:35:03;96749.59;;;2.09;100.00
6829;BME280;17930;48.592;8.868;2022-12-07T04:37:30;96764.38;;;2.25;100.00
6829;BME280;17930;48.592;8.868;2022-12-07T04:39:57;96758.59;;;2.30;100.00
6829;BME280;17930;48.592;8.868;2022-12-07T04:42:24;96754.97;;;2.19;100.00
6829;BME280;17930;48.592;8.868;2022-12-07T04:44:50;96764.13;;;2.15;100.00
6829;BME280;17930;48.592;8.868;2022-12-07T04:47:17;96754.34;;;2.35;100.00
6829;BME280;17930;48.592;8.868;2022-12-07T04:49:44;96758.56;;;2.18;100.00
6829;BME280;17930;48.592;8.868;2022-12-07T04:52:12;96750.47;;;2.03;100.00
6829;BME280;17930;48.592;8.868;2022-12-07T04:54:38;96753.34;;;1.96;100.00
6829;BME280;17930;48.592;8.868;2022-12-07T04:57:05;96749.78;;;1.97;100.00
6829;BME280;17930;48.592;8.868;2022-12-07T04:59:32;96753.19;;;1.91;100.00
6829;BME280;17930;48.592;8.868;2022-12-07T05:01:58;96763.50;;;1.73;100.00
6829;BME280;17930;48.592;8.868;2022-12-07T05:04:25;96750.66;;;1.55;100.00
6829;BME280;17930;48.592;8.868;2022-12-07T05:06:52;96763.09;;;1.40;100.00
6829;BME280;17930;48.592;8.868;2022-12-07T05:09:20;96765.66;;;1.22;100.00
6829;BME280;17930;48.592;8.868;2022-12-07T05:11:47;96763.00;;;1.11;100.00
6829;BME280;17930;48.592;8.868;2022-12-07T05:14:15;96756.81;;;1.01;100.00
6829;BME280;17930;48.592;8.868;2022-12-07T05:16:43;96760.00;;;0.96;100.00
6829;BME280;17930;48.592;8.868;2022-12-07T05:19:10;96752.31;;;1.14;100.00
6829;BME280;17930;48.592;8.868;2022-12-07T05:21:38;96751.19;;;1.28;100.00
6829;BME280;17930;48.592;8.868;2022-12-07T05:24:07;96748.66;;;1.21;100.00
6829;BME280;17930;48.592;8.868;2022-12-07T05:26:35;96743.31;;;1.23;100.00
6829;BME280;17930;48.592;8.868;2022-12-07T05:29:02;96747.94;;;1.14;100.00
6829;BME280;17930;48.592;8.868;2022-12-07T05:31:29;96741.69;;;1.10;100.00
6829;BME280;17930;48.592;8.868;2022-12-07T05:33:56;96743.38;;;0.99;100.00
6829;BME280;17930;48.592;8.868;2022-12-07T05:36:23;96742.00;;;0.78;100.00
6829;BME280;17930;48.592;8.868;2022-12-07T05:38:50;96751.09;;;0.74;100.00
6829;BME280;17930;48.592;8.868;2022-12-07T05:41:18;96750.44;;;0.61;100.00
6829;BME280;17930;48.592;8.868;2022-12-07T05:44:04;96756.50;;;0.91;100.00
6829;BME280;17930;48.592;8.868;2022-12-07T05:46:32;96756.31;;;0.68;100.00
6829;BME280;17930;48.592;8.868;2022-12-07T05:48:59;96753.72;;;0.44;100.00
6829;BME280;17930;48.592;8.868;2022-12-07T05:51:26;96754.13;;;0.65;100.00
6829;BME280;17930;48.592;8.868;2022-12-07T05:53:52;96755.25;;;0.51;100.00
6829;BME280;17930;48.592;8.868;2022-12-07T05:56:19;96757.34;;;0.60;100.00
6829;BME280;17930;48.592;8.868;2022-12-07T05:58:46;96766.47;;;0.81;100.00
6829;BME280;17930;48.592;8.868;2022-12-07T06:01:32;96754.09;;;1.13;100.00
6829;BME280;17930;48.592;8.868;2022-12-07T06:03:59;96754.97;;;1.25;100.00
6829;BME280;17930;48.592;8.868;2022-12-07T06:06:26;96756.69;;;1.13;100.00
6829;BME280;17930;48.592;8.868;2022-12-07T06:09:07;96758.22;;;1.14;100.00
6829;BME280;17930;48.592;8.868;2022-12-07T06:11:34;96761.00;;;1.13;100.00
6829;BME280;17930;48.592;8.868;2022-12-07T06:14:19;96762.25;;;1.10;100.00
6829;BME280;17930;48.592;8.868;2022-12-07T06:16:47;96759.81;;;1.15;100.00
6829;BME280;17930;48.592;8.868;2022-12-07T06:19:13;96757.25;;;1.33;100.00
6829;BME280;17930;48.592;8.868;2022-12-07T06:21:41;96762.53;;;1.20;100.00
6829;BME280;17930;48.592;8.868;2022-12-07T06:24:09;96770.72;;;1.11;100.00
6829;BME280;17930;48.592;8.868;2022-12-07T06:26:37;96768.63;;;1.01;100.00
6829;BME280;17930;48.592;8.868;2022-12-07T06:29:04;96765.91;;;0.97;100.00
6829;BME280;17930;48.592;8.868;2022-12-07T06:31:31;96763.41;;;0.90;100.00
6829;BME280;17930;48.592;8.868;2022-12-07T06:34:00;96774.25;;;0.92;100.00
6829;BME280;17930;48.592;8.868;2022-12-07T06:36:27;96772.97;;;1.01;100.00
6829;BME280;17930;48.592;8.868;2022-12-07T06:38:54;96768.78;;;1.24;100.00
6829;BME280;17930;48.592;8.868;2022-12-07T06:41:35;96767.94;;;1.48;100.00
6829;BME280;17930;48.592;8.868;2022-12-07T06:44:03;96775.28;;;1.62;100.00
6829;BME280;17930;48.592;8.868;2022-12-07T06:46:30;96773.38;;;1.40;100.00
6829;BME280;17930;48.592;8.868;2022-12-07T06:48:58;96775.06;;;1.28;100.00
6829;BME280;17930;48.592;8.868;2022-12-07T06:51:25;96788.75;;;1.22;100.00
6829;BME280;17930;48.592;8.868;2022-12-07T06:53:52;96789.84;;;1.15;100.00
6829;BME280;17930;48.592;8.868;2022-12-07T06:56:19;96793.03;;;1.10;100.00
6829;BME280;17930;48.592;8.868;2022-12-07T06:58:46;96790.56;;;1.22;100.00
6829;BME280;17930;48.592;8.868;2022-12-07T07:01:14;96784.38;;;1.47;100.00
6829;BME280;17930;48.592;8.868;2022-12-07T07:03:41;96785.09;;;1.54;100.00
6829;BME280;17930;48.592;8.868;2022-12-07T07:06:10;96792.84;;;1.48;100.00
6829;BME280;17930;48.592;8.868;2022-12-07T07:08:38;96791.28;;;1.64;100.00
6829;BME280;17930;48.592;8.868;2022-12-07T07:11:06;96778.50;;;1.76;100.00
6829;BME280;17930;48.592;8.868;2022-12-07T07:13:33;96785.09;;;1.54;100.00
6829;BME280;17930;48.592;8.868;2022-12-07T07:16:00;96788.38;;;1.43;100.00
6829;BME280;17930;48.592;8.868;2022-12-07T07:18:31;96783.22;;;1.43;100.00
6829;BME280;17930;48.592;8.868;2022-12-07T07:20:58;96775.78;;;1.35;100.00
6829;BME280;17930;48.592;8.868;2022-12-07T07:23:31;96781.78;;;1.65;100.00
6829;BME280;17930;48.592;8.868;2022-12-07T07:26:03;96787.91;;;1.82;100.00
6829;BME280;17930;48.592;8.868;2022-12-07T07:28:29;96787.34;;;1.80;100.00
6829;BME280;17930;48.592;8.868;2022-12-07T07:30:56;96782.34;;;1.85;100.00
6829;BME280;17930;48.592;8.868;2022-12-07T07:33:23;96783.13;;;1.67;100.00
6829;BME280;17930;48.592;8.868;2022-12-07T07:35:50;96788.44;;;1.54;100.00
6829;BME280;17930;48.592;8.868;2022-12-07T07:38:17;96792.28;;;1.46;100.00
6829;BME280;17930;48.592;8.868;2022-12-07T07:40:45;96791.38;;;1.40;100.00
6829;BME280;17930;48.592;8.868;2022-12-07T07:43:12;96791.66;;;1.50;100.00
6829;BME280;17930;48.592;8.868;2022-12-07T07:45:39;96789.56;;;1.41;100.00
6829;BME280;17930;48.592;8.868;2022-12-07T07:48:06;96795.50;;;1.59;100.00
6829;BME280;17930;48.592;8.868;2022-12-07T07:50:32;96791.00;;;1.54;100.00
6829;BME280;17930;48.592;8.868;2022-12-07T07:52:59;96805.56;;;1.60;100.00
6829;BME280;17930;48.592;8.868;2022-12-07T07:55:26;96798.78;;;1.66;100.00
6829;BME280;17930;48.592;8.868;2022-12-07T07:57:54;96800.31;;;1.85;100.00
6829;BME280;17930;48.592;8.868;2022-12-07T08:00:21;96803.13;;;1.83;100.00
6829;BME280;17930;48.592;8.868;2022-12-07T08:02:49;96805.69;;;1.83;100.00
6829;BME280;17930;48.592;8.868;2022-12-07T08:05:16;96797.59;;;1.98;100.00
6829;BME280;17930;48.592;8.868;2022-12-07T08:07:43;96803.59;;;2.09;100.00
6829;BME280;17930;48.592;8.868;2022-12-07T08:10:11;96797.72;;;2.20;100.00
6829;BME280;17930;48.592;8.868;2022-12-07T08:12:39;96787.75;;;2.24;100.00
6829;BME280;17930;48.592;8.868;2022-12-07T08:15:36;96793.41;;;2.14;100.00
6829;BME280;17930;48.592;8.868;2022-12-07T08:18:03;96787.84;;;2.17;100.00
6829;BME280;17930;48.592;8.868;2022-12-07T08:20:31;96791.00;;;2.19;100.00
6829;BME280;17930;48.592;8.868;2022-12-07T08:22:58;96785.66;;;2.32;100.00
6829;BME280;17930;48.592;8.868;2022-12-07T08:25:26;96798.44;;;2.09;100.00
6829;BME280;17930;48.592;8.868;2022-12-07T08:27:53;96802.09;;;2.02;100.00
6829;BME280;17930;48.592;8.868;2022-12-07T08:30:20;96812.72;;;2.05;100.00
6829;BME280;17930;48.592;8.868;2022-12-07T08:32:49;96808.72;;;2.09;100.00
6829;BME280;17930;48.592;8.868;2022-12-07T08:35:16;96801.13;;;2.14;100.00
6829;BME280;17930;48.592;8.868;2022-12-07T08:37:42;96796.03;;;2.26;100.00
6829;BME280;17930;48.592;8.868;2022-12-07T08:40:12;96798.81;;;2.24;100.00
6829;BME280;17930;48.592;8.868;2022-12-07T08:42:40;96799.41;;;2.26;100.00
6829;BME280;17930;48.592;8.868;2022-12-07T08:45:10;96796.44;;;2.11;100.00
6829;BME280;17930;48.592;8.868;2022-12-07T08:47:39;96797.75;;;2.32;100.00
6829;BME280;17930;48.592;8.868;2022-12-07T08:50:11;96795.06;;;2.38;100.00
6829;BME280;17930;48.592;8.868;2022-12-07T08:52:41;96792.53;;;2.50;100.00
6829;BME280;17930;48.592;8.868;2022-12-07T08:55:10;96796.47;;;2.52;100.00
6829;BME280;17930;48.592;8.868;2022-12-07T08:57:38;96795.03;;;2.56;100.00
6829;BME280;17930;48.592;8.868;2022-12-07T09:00:06;96794.47;;;2.65;100.00
6829;BME280;17930;48.592;8.868;2022-12-07T09:02:34;96803.44;;;2.63;100.00
6829;BME280;17930;48.592;8.868;2022-12-07T09:05:01;96786.22;;;2.98;100.00
6829;BME280;17930;48.592;8.868;2022-12-07T09:07:30;96788.69;;;2.93;100.00
6829;BME280;17930;48.592;8.868;2022-12-07T09:09:58;96788.47;;;3.05;100.00
6829;BME280;17930;48.592;8.868;2022-12-07T09:12:25;96787.13;;;3.14;100.00
6829;BME280;17930;48.592;8.868;2022-12-07T09:14:52;96782.09;;;3.31;100.00
6829;BME280;17930;48.592;8.868;2022-12-07T09:17:18;96793.50;;;3.23;100.00
6829;BME280;17930;48.592;8.868;2022-12-07T09:19:45;96784.78;;;3.24;100.00
6829;BME280;17930;48.592;8.868;2022-12-07T09:22:12;96790.16;;;3.34;100.00
6829;BME280;17930;48.592;8.868;2022-12-07T09:24:40;96795.53;;;3.21;100.00
6829;BME280;17930;48.592;8.868;2022-12-07T09:27:07;96800.81;;;3.38;100.00
6829;BME280;17930;48.592;8.868;2022-12-07T09:29:33;96795.50;;;3.44;100.00
6829;BME280;17930;48.592;8.868;2022-12-07T09:32:00;96803.47;;;3.54;100.00
6829;BME280;17930;48.592;8.868;2022-12-07T09:34:30;96809.72;;;3.69;100.00
6829;BME280;17930;48.592;8.868;2022-12-07T09:37:00;96802.97;;;3.80;100.00
6829;BME280;17930;48.592;8.868;2022-12-07T09:39:28;96801.88;;;3.76;100.00
6829;BME280;17930;48.592;8.868;2022-12-07T09:41:57;96798.31;;;3.54;100.00
6829;BME280;17930;48.592;8.868;2022-12-07T09:44:25;96796.94;;;3.63;100.00
6829;BME280;17930;48.592;8.868;2022-12-07T09:46:52;96795.47;;;3.67;100.00
6829;BME280;17930;48.592;8.868;2022-12-07T09:49:21;96795.09;;;3.86;100.00
6829;BME280;17930;48.592;8.868;2022-12-07T09:52:00;96794.09;;;3.87;100.00
6829;BME280;17930;48.592;8.868;2022-12-07T09:54:29;96783.28;;;4.02;100.00
6829;BME280;17930;48.592;8.868;2022-12-07T09:56:58;96777.03;;;4.25;100.00
6829;BME280;17930;48.592;8.868;2022-12-07T09:59:25;96776.75;;;4.38;100.00
6829;BME280;17930;48.592;8.868;2022-12-07T10:01:53;96781.31;;;4.64;100.00
6829;BME280;17930;48.592;8.868;2022-12-07T10:04:22;96783.53;;;4.72;100.00
6829;BME280;17930;48.592;8.868;2022-12-07T10:06:51;96779.91;;;4.89;100.00
6829;BME280;17930;48.592;8.868;2022-12-07T10:09:19;96772.09;;;5.01;100.00
6829;BME280;17930;48.592;8.868;2022-12-07T10:12:03;96776.44;;;4.67;100.00
6829;BME280;17930;48.592;8.868;2022-12-07T10:14:31;96771.28;;;4.67;100.00
6829;BME280;17930;48.592;8.868;2022-12-07T10:16:59;96772.84;;;4.68;100.00
6829;BME280;17930;48.592;8.868;2022-12-07T10:19:27;96776.44;;;4.67;100.00
6829;BME280;17930;48.592;8.868;2022-12-07T10:22:04;96770.22;;;4.63;100.00
6829;BME280;17930;48.592;8.868;2022-12-07T10:24:31;96770.50;;;4.67;100.00
6829;BME280;17930;48.592;8.868;2022-12-07T10:26:58;96759.56;;;4.76;100.00
6829;BME280;17930;48.592;8.868;2022-12-07T10:29:29;96762.78;;;4.83;100.00
6829;BME280;17930;48.592;8.868;2022-12-07T10:31:59;96761.50;;;5.02;100.00
6829;BME280;17930;48.592;8.868;2022-12-07T10:34:33;96756.03;;;4.99;100.00
6829;BME280;17930;48.592;8.868;2022-12-07T10:37:15;96770.50;;;5.16;100.00
6829;BME280;17930;48.592;8.868;2022-12-07T10:39:45;96762.66;;;5.27;100.00
6829;BME280;17930;48.592;8.868;2022-12-07T10:42:17;96764.91;;;5.40;100.00
6829;BME280;17930;48.592;8.868;2022-12-07T10:44:47;96767.34;;;5.14;100.00
6829;BME280;17930;48.592;8.868;2022-12-07T10:47:33;96756.09;;;5.04;100.00
6829;BME280;17930;48.592;8.868;2022-12-07T10:50:28;96763.78;;;4.99;100.00
6829;BME280;17930;48.592;8.868;2022-12-07T10:53:21;96751.78;;;4.93;100.00
6829;BME280;17930;48.592;8.868;2022-12-07T10:59:38;96741.34;;;5.20;100.00
6829;BME280;17930;48.592;8.868;2022-12-07T11:02:35;96745.22;;;5.39;100.00
6829;BME280;17930;48.592;8.868;2022-12-07T11:05:13;96747.28;;;5.37;100.00
6829;BME280;17930;48.592;8.868;2022-12-07T11:07:51;96741.97;;;5.27;100.00
6829;BME280;17930;48.592;8.868;2022-12-07T11:10:28;96741.34;;;5.37;100.00
6829;BME280;17930;48.592;8.868;2022-12-07T11:13:20;96734.88;;;5.39;100.00
6829;BME280;17930;48.592;8.868;2022-12-07T11:16:19;96734.06;;;5.55;100.00
6829;BME280;17930;48.592;8.868;2022-12-07T11:19:03;96727.72;;;5.67;100.00
6829;BME280;17930;48.592;8.868;2022-12-07T11:21:41;96721.78;;;5.67;100.00
6829;BME280;17930;48.592;8.868;2022-12-07T11:24:16;96718.06;;;5.58;100.00
6829;BME280;17930;48.592;8.868;2022-12-07T11:27:07;96717.59;;;5.61;100.00
6829;BME280;17930;48.592;8.868;2022-12-07T11:30:08;96712.22;;;5.67;100.00
6829;BME280;17930;48.592;8.868;2022-12-07T11:33:02;96717.69;;;5.71;100.00
6829;BME280;17930;48.592;8.868;2022-12-07T11:35:47;96699.19;;;5.79;100.00
6829;BME280;17930;48.592;8.868;2022-12-07T11:38:21;96700.97;;;6.00;100.00
6829;BME280;17930;48.592;8.868;2022-12-07T11:40:56;96699.97;;;6.06;100.00
6829;BME280;17930;48.592;8.868;2022-12-07T11:46:29;96684.44;;;6.06;100.00
6829;BME280;17930;48.592;8.868;2022-12-07T11:49:08;96690.22;;;5.86;100.00
6829;BME280;17930;48.592;8.868;2022-12-07T11:54:17;96692.84;;;5.91;100.00
6829;BME280;17930;48.592;8.868;2022-12-07T11:56:48;96692.59;;;5.71;100.00
6829;BME280;17930;48.592;8.868;2022-12-07T11:59:19;96683.97;;;5.82;100.00
6829;BME280;17930;48.592;8.868;2022-12-07T12:01:53;96688.19;;;5.72;100.00
6829;BME280;17930;48.592;8.868;2022-12-07T12:04:32;96677.41;;;6.01;100.00
6829;BME280;17930;48.592;8.868;2022-12-07T12:07:00;96673.41;;;5.89;100.00
6829;BME280;17930;48.592;8.868;2022-12-07T12:09:33;96672.38;;;5.90;100.00
6829;BME280;17930;48.592;8.868;2022-12-07T12:12:12;96680.78;;;6.02;100.00
6829;BME280;17930;48.592;8.868;2022-12-07T12:14:50;96676.66;;;6.01;100.00
6829;BME280;17930;48.592;8.868;2022-12-07T12:17:41;96674.69;;;6.12;100.00
6829;BME280;17930;48.592;8.868;2022-12-07T12:20:20;96670.22;;;6.03;100.00
6829;BME280;17930;48.592;8.868;2022-12-07T12:22:53;96672.75;;;5.98;100.00
6829;BME280;17930;48.592;8.868;2022-12-07T12:25:25;96667.94;;;6.11;100.00
6829;BME280;17930;48.592;8.868;2022-12-07T12:27:56;96661.09;;;6.27;100.00
6829;BME280;17930;48.592;8.868;2022-12-07T12:30:31;96658.25;;;6.28;100.00
6829;BME280;17930;48.592;8.868;2022-12-07T12:33:04;96661.88;;;6.27;100.00
6829;BME280;17930;48.592;8.868;2022-12-07T12:35:34;96659.38;;;6.37;100.00
6829;BME280;17930;48.592;8.868;2022-12-07T12:38:27;96651.09;;;6.40;100.00
6829;BME280;17930;48.592;8.868;2022-12-07T12:40:55;96657.56;;;6.11;100.00
6829;BME280;17930;48.592;8.868;2022-12-07T12:43:42;96659.28;;;5.96;100.00
6829;BME280;17930;48.592;8.868;2022-12-07T12:49:34;96654.53;;;5.67;100.00
6829;BME280;17930;48.592;8.868;2022-12-07T12:55:15;96646.78;;;5.67;100.00
6829;BME280;17930;48.592;8.868;2022-12-07T12:57:45;96640.31;;;5.91;100.00
6829;BME280;17930;48.592;8.868;2022-12-07T13:00:17;96639.28;;;5.92;100.00
6829;BME280;17930;48.592;8.868;2022-12-07T13:02:48;96642.44;;;5.99;100.00
6829;BME280;17930;48.592;8.868;2022-12-07T13:05:19;96641.72;;;5.77;100.00
6829;BME280;17930;48.592;8.868;2022-12-07T13:07:58;96635.16;;;5.91;100.00
6829;BME280;17930;48.592;8.868;2022-12-07T13:10:43;96637.25;;;5.72;100.00
6829;BME280;17930;48.592;8.868;2022-12-07T13:13:34;96624.94;;;5.79;100.00
6829;BME280;17930;48.592;8.868;2022-12-07T13:16:38;96625.78;;;5.85;100.00
6829;BME280;17930;48.592;8.868;2022-12-07T13:22:58;96621.94;;;5.66;100.00
6829;BME280;17930;48.592;8.868;2022-12-07T13:25:43;96617.47;;;5.83;100.00
6829;BME280;17930;48.592;8.868;2022-12-07T13:28:16;96615.78;;;5.93;100.00
6829;BME280;17930;48.592;8.868;2022-12-07T13:30:50;96624.22;;;5.84;100.00
6829;BME280;17930;48.592;8.868;2022-12-07T13:33:20;96618.34;;;5.93;100.00
6829;BME280;17930;48.592;8.868;2022-12-07T13:35:47;96615.06;;;6.03;100.00
6829;BME280;17930;48.592;8.868;2022-12-07T13:38:23;96614.84;;;5.78;100.00
6829;BME280;17930;48.592;8.868;2022-12-07T13:41:19;96617.03;;;5.43;100.00
6829;BME280;17930;48.592;8.868;2022-12-07T13:43:50;96614.69;;;5.42;100.00
6829;BME280;17930;48.592;8.868;2022-12-07T13:46:25;96618.69;;;5.75;100.00
6829;BME280;17930;48.592;8.868;2022-12-07T13:48:52;96618.97;;;5.79;100.00
6829;BME280;17930;48.592;8.868;2022-12-07T13:51:23;96618.22;;;5.57;100.00
6829;BME280;17930;48.592;8.868;2022-12-07T13:53:52;96611.72;;;5.55;100.00
6829;BME280;17930;48.592;8.868;2022-12-07T13:56:21;96607.88;;;5.57;100.00